Airports

 

 

Airport Name Latest METAR Visual Conditions
Augusta Regional Airport (AGS) KAGS 180453Z AUTO 00000KT 10SM CLR 14/13 A3002 RMK AO2 SLP162 T01390133 403060139 $ VFR
Hartsfield-Jackson Atlanta International Airport (ATL) KATL 180452Z 35003KT 10SM SCT250 23/09 A3004 RMK AO2 SLP164 T02280089 402940156 VFR
Asheville Regional Airport (AVL) KAVL 180454Z AUTO 00000KT 10SM CLR 13/10 A3011 RMK AO2 SLP178 T01330100 402560100 VFR
Birmingham-Shuttlesworth International Airport (BHM) KBHM 180453Z 00000KT 10SM SCT250 18/12 A3006 RMK AO2 SLP173 T01830122 VFR
Chattanooga Metropolitan Airport (CHA) KCHA 180453Z 00000KT 10SM CLR 18/13 A3005 RMK AO2 SLP170 T01830133 402940133 VFR
Charlotte Douglas International Airport (CLT) KCLT 180452Z 00000KT 7SM CLR 18/11 A3003 RMK SLP162 T01780106 402890122 VFR
Greenville-Spartanburg International Airport (GSP) KGSP 180453Z AUTO 00000KT 10SM CLR 18/09 A3005 RMK AO2 SLP165 T01780094 402830122 VFR
Montgomery Regional Airport (MGM) KMGM 180453Z AUTO 00000KT 10SM CLR 20/13 A3003 RMK AO2 SLP165 T02000128 VFR
Tri-Cities Regional Airport (TRI) KTRI 180453Z 00000KT 10SM FEW250 13/10 A3007 RMK AO2 SLP163 T01280100 402720083 VFR
McGhee Tyson Airport (TYS) KTYS 180453Z 05004KT 10SM CLR 17/12 A3004 RMK AO2 SLP165 T01670117 402780122 VFR